createdAt,value
2022-08-26T00:01:38.452Z,50.46
2022-08-26T00:04:05.429Z,50.89
2022-08-26T00:06:32.914Z,51.19
2022-08-26T00:08:59.739Z,51.01
2022-08-26T00:11:27.213Z,50.99
2022-08-26T00:13:53.943Z,50.87
2022-08-26T00:16:22.235Z,50.88
2022-08-26T00:18:49.016Z,50.99
2022-08-26T00:21:16.180Z,51.46
2022-08-26T00:23:42.933Z,51.67
2022-08-26T00:26:11.674Z,51.58
2022-08-26T00:28:39.529Z,52.17
2022-08-26T00:31:07.640Z,52.30
2022-08-26T00:33:39.505Z,53.15
2022-08-26T00:36:06.780Z,52.83
2022-08-26T00:38:34.702Z,52.99
2022-08-26T00:41:05.543Z,53.49
2022-08-26T00:43:47.484Z,53.78
2022-08-26T00:46:19.576Z,54.17
2022-08-26T00:48:52.356Z,54.30
2022-08-26T00:51:22.176Z,54.33
2022-08-26T00:53:53.639Z,54.27
2022-08-26T00:56:26.463Z,54.00
2022-08-26T00:58:56.761Z,53.85
2022-08-26T01:01:23.545Z,54.37
2022-08-26T01:03:52.624Z,53.93
2022-08-26T01:06:19.871Z,54.20
2022-08-26T01:08:46.560Z,54.54
2022-08-26T01:11:13.754Z,54.47
2022-08-26T01:13:41.117Z,54.34
2022-08-26T01:16:12.794Z,53.84
2022-08-26T01:18:40.357Z,53.82
2022-08-26T01:21:17.922Z,53.67
2022-08-26T01:23:49.673Z,54.04
2022-08-26T01:26:20.171Z,53.79
2022-08-26T01:28:51.577Z,53.48
2022-08-26T01:31:22.525Z,53.12
2022-08-26T01:33:56.790Z,53.27
2022-08-26T01:36:24.474Z,53.21
2022-08-26T01:38:52.904Z,52.82
2022-08-26T01:41:20.679Z,52.74
2022-08-26T01:43:56.292Z,52.72
2022-08-26T01:46:28.242Z,52.53
2022-08-26T01:48:57.456Z,52.51
2022-08-26T01:51:27.400Z,52.51
2022-08-26T01:53:55.664Z,51.95
2022-08-26T01:56:23.888Z,52.27
2022-08-26T01:58:54.100Z,52.00
2022-08-26T02:01:22.531Z,51.98
2022-08-26T02:04:03.089Z,51.97
2022-08-26T02:06:30.639Z,52.25
2022-08-26T02:09:01.961Z,52.55
2022-08-26T02:11:28.636Z,52.53
2022-08-26T02:14:02.741Z,52.44
2022-08-26T02:16:34.476Z,52.70
2022-08-26T02:19:04.691Z,52.33
2022-08-26T02:21:33.921Z,52.23
2022-08-26T02:24:11.384Z,52.74
2022-08-26T02:26:39.288Z,53.38
2022-08-26T02:29:09.736Z,53.82
2022-08-26T02:31:36.499Z,53.77
2022-08-26T02:34:10.830Z,53.25
2022-08-26T02:36:38.110Z,53.15
2022-08-26T02:39:07.414Z,53.20
2022-08-26T02:41:35.705Z,53.41
2022-08-26T02:44:11.903Z,54.14
2022-08-26T02:46:39.183Z,54.42
2022-08-26T02:49:06.954Z,54.56
2022-08-26T02:51:33.671Z,53.83
2022-08-26T02:54:00.363Z,53.85
2022-08-26T02:56:29.292Z,53.58
2022-08-26T02:58:57.324Z,53.81
2022-08-26T03:01:26.537Z,53.94
2022-08-26T03:03:54.234Z,53.78
2022-08-26T03:06:21.282Z,53.58
2022-08-26T03:08:48.173Z,53.44
2022-08-26T03:11:15.179Z,53.49
2022-08-26T03:13:42.393Z,53.65
2022-08-26T03:16:11.000Z,53.61
2022-08-26T03:18:38.129Z,53.96
2022-08-26T03:21:06.285Z,53.49
2022-08-26T03:23:33.345Z,53.45
2022-08-26T03:26:01.402Z,54.02
2022-08-26T03:28:28.182Z,54.16
2022-08-26T03:30:54.927Z,54.04
2022-08-26T03:33:23.540Z,53.65
2022-08-26T03:35:51.390Z,53.75
2022-08-26T03:38:19.269Z,53.50
2022-08-26T03:40:46.356Z,53.70
2022-08-26T03:43:13.987Z,53.63
2022-08-26T03:45:41.115Z,53.81
2022-08-26T03:48:10.174Z,54.00
2022-08-26T03:50:38.856Z,53.89
2022-08-26T03:53:07.473Z,53.42
2022-08-26T03:55:39.699Z,53.45
2022-08-26T03:58:06.351Z,53.11
2022-08-26T04:00:33.040Z,52.73
2022-08-26T04:03:01.249Z,52.83
2022-08-26T04:05:28.376Z,52.73
2022-08-26T04:07:56.417Z,52.73
2022-08-26T04:10:28.515Z,52.61
2022-08-26T04:12:55.598Z,52.44
2022-08-26T04:15:26.207Z,52.57
2022-08-26T04:17:53.012Z,52.70
2022-08-26T04:20:19.769Z,52.73
2022-08-26T04:22:46.577Z,52.70
2022-08-26T04:25:14.858Z,52.74
2022-08-26T04:27:41.595Z,52.62
2022-08-26T04:30:10.163Z,52.70
2022-08-26T04:32:37.483Z,52.67
2022-08-26T04:35:05.577Z,53.01
2022-08-26T04:37:33.608Z,53.14
2022-08-26T04:40:00.407Z,53.03
2022-08-26T04:42:29.879Z,53.21
2022-08-26T04:44:56.640Z,53.16
2022-08-26T04:47:27.031Z,52.90
2022-08-26T04:49:57.749Z,52.90
2022-08-26T04:52:24.821Z,53.14
2022-08-26T04:54:52.505Z,52.93
2022-08-26T04:57:19.168Z,52.93
2022-08-26T04:59:47.253Z,53.24
2022-08-26T05:02:16.255Z,53.47
2022-08-26T05:04:43.687Z,53.65
2022-08-26T05:07:10.712Z,53.87
2022-08-26T05:09:39.203Z,53.89
2022-08-26T05:12:08.006Z,54.03
2022-08-26T05:14:36.782Z,54.27
2022-08-26T05:17:05.037Z,53.84
2022-08-26T05:19:31.727Z,53.71
2022-08-26T05:21:59.607Z,53.66
2022-08-26T05:24:26.322Z,53.52
2022-08-26T05:26:54.063Z,53.37
2022-08-26T05:29:23.804Z,53.07
2022-08-26T05:31:52.389Z,52.97
2022-08-26T05:34:23.590Z,52.51
2022-08-26T05:36:52.594Z,52.66
2022-08-26T05:39:19.689Z,52.56
2022-08-26T05:41:46.385Z,52.52
2022-08-26T05:44:16.393Z,52.25
2022-08-26T05:46:44.641Z,52.08
2022-08-26T05:49:13.702Z,51.87
2022-08-26T05:51:46.231Z,51.61
2022-08-26T05:54:21.889Z,51.32
2022-08-26T05:56:50.052Z,51.26
2022-08-26T05:59:16.714Z,51.10
2022-08-26T06:01:48.030Z,51.01
2022-08-26T06:04:14.758Z,50.98
2022-08-26T06:06:43.590Z,50.94
2022-08-26T06:09:11.979Z,50.68
2022-08-26T06:11:39.829Z,50.78
2022-08-26T06:14:07.951Z,50.93
2022-08-26T06:16:40.822Z,50.78
2022-08-26T06:19:10.748Z,50.70
2022-08-26T06:21:40.022Z,50.79
2022-08-26T06:24:29.067Z,50.50
2022-08-26T06:27:01.313Z,50.47
2022-08-26T06:29:33.518Z,50.57
2022-08-26T06:32:01.952Z,50.70
2022-08-26T06:34:30.351Z,50.76
2022-08-26T06:36:58.600Z,50.40
2022-08-26T06:39:26.730Z,50.70
2022-08-26T06:41:57.721Z,50.63
2022-08-26T06:44:24.618Z,50.70
2022-08-26T06:46:51.496Z,50.51
2022-08-26T06:49:26.632Z,50.42
2022-08-26T06:51:55.134Z,50.47
2022-08-26T06:54:22.090Z,50.35
2022-08-26T06:56:50.262Z,50.26
2022-08-26T06:59:17.963Z,50.15
2022-08-26T07:01:45.203Z,50.32
2022-08-26T07:04:15.543Z,50.35
2022-08-26T07:06:50.021Z,50.19
2022-08-26T07:09:19.560Z,49.82
2022-08-26T07:11:46.211Z,49.82
2022-08-26T07:14:14.346Z,49.83
2022-08-26T07:16:41.462Z,49.94
2022-08-26T07:19:10.783Z,49.61
2022-08-26T07:24:35.442Z,49.73
2022-08-26T07:27:03.983Z,49.86
2022-08-26T07:29:34.574Z,49.05
2022-08-26T07:32:01.541Z,48.74
2022-08-26T07:34:28.809Z,48.96
2022-08-26T07:36:57.088Z,48.56
2022-08-26T07:39:27.011Z,48.46
2022-08-26T07:41:54.291Z,48.21
2022-08-26T07:44:21.060Z,47.81
2022-08-26T07:46:53.272Z,47.72
2022-08-26T07:49:21.105Z,47.41
2022-08-26T13:58:44.226Z,35.95
2022-08-26T14:07:11.853Z,36.45
2022-08-26T14:24:13.935Z,35.28
2022-08-26T14:26:43.350Z,35.31
2022-08-26T14:29:17.659Z,35.96
2022-08-26T14:34:22.852Z,35.75
2022-08-26T14:36:49.610Z,36.38
2022-08-26T14:39:16.313Z,36.11
2022-08-26T14:41:53.931Z,35.91
2022-08-26T14:44:24.265Z,35.46
2022-08-26T14:46:56.716Z,35.90
2022-08-26T14:49:26.904Z,35.58
2022-08-26T14:54:38.403Z,35.37
2022-08-26T15:05:20.592Z,35.23
2022-08-26T15:07:49.530Z,35.05
2022-08-26T15:13:01.879Z,35.63
2022-08-26T15:15:30.495Z,36.05
2022-08-26T15:17:57.267Z,36.91
2022-08-26T15:20:25.776Z,36.88
2022-08-26T15:22:52.507Z,36.33
2022-08-26T15:25:20.443Z,36.52
2022-08-26T15:27:47.327Z,36.79
2022-08-26T15:30:20.382Z,36.24
2022-08-26T15:32:47.356Z,36.56
2022-08-26T15:40:44.883Z,35.71
2022-08-26T16:03:31.913Z,34.88
2022-08-26T16:05:59.255Z,34.31
2022-08-26T16:11:08.943Z,35.53
2022-08-26T16:16:17.211Z,34.79
2022-08-26T16:18:45.604Z,34.75
2022-08-26T16:21:15.996Z,34.87
2022-08-26T16:23:44.934Z,34.95
2022-08-26T16:26:14.943Z,35.06
2022-08-26T16:28:42.177Z,34.68
2022-08-26T16:31:10.958Z,34.61
2022-08-26T16:33:38.719Z,34.65
2022-08-26T16:39:31.764Z,35.06
2022-08-26T16:42:22.802Z,36.49
2022-08-26T22:12:21.250Z,51.09
